Time;durP1;ratioP1;P1;durP2;ratioP2;P2;SDS_P1;SDS_P2;PMS_P1;PMS_P2;Temp;Humidity;BMP_temperature;BMP_pressure;BME280_temperature;BME280_humidity;BME280_pressure;Samples;Min_cycle;Max_cycle;Signal;HPM_P1;HPM_P2
2023/10/16 00:01:14;;;;;;;515.95;461.50;;;28.10;99.90;;;;;;5019583;28;20483;-68
2023/10/16 00:03:41;;;;;;;559.60;502.83;;;28.10;99.90;;;;;;5021944;28;20100;-68
2023/10/16 00:06:11;;;;;;;551.40;494.65;;;28.10;99.90;;;;;;5021062;28;20014;-66
2023/10/16 00:08:47;;;;;;;523.42;469.02;;;28.10;99.90;;;;;;5019083;28;20054;-68
2023/10/16 00:11:17;;;;;;;511.45;458.02;;;28.10;99.90;;;;;;5019809;28;20022;-67
2023/10/16 00:13:47;;;;;;;572.97;514.42;;;28.20;99.90;;;;;;5020032;28;20030;-64
2023/10/16 00:16:16;;;;;;;562.60;505.35;;;28.30;99.90;;;;;;5019222;28;20026;-64
2023/10/16 00:18:45;;;;;;;590.55;531.40;;;28.30;99.90;;;;;;5020828;28;20021;-63
2023/10/16 00:21:13;;;;;;;1078.22;972.25;;;28.30;99.90;;;;;;5015163;28;20092;-65
2023/10/16 00:23:41;;;;;;;863.05;778.53;;;28.40;99.90;;;;;;5011288;28;20101;-64
2023/10/16 00:26:10;;;;;;;1147.25;998.22;;;28.50;99.90;;;;;;5019062;28;20026;-64
2023/10/16 00:28:44;;;;;;;1363.00;999.90;;;28.50;99.90;;;;;;5021411;28;20049;-63
2023/10/16 00:31:20;;;;;;;1354.78;999.90;;;28.70;99.90;;;;;;5020970;28;20040;-65
2023/10/16 00:33:51;;;;;;;1551.00;999.90;;;28.70;99.90;;;;;;5020156;28;20026;-65
2023/10/16 00:36:17;;;;;;;1530.90;999.90;;;28.80;99.90;;;;;;5019526;28;20034;-65
2023/10/16 00:38:51;;;;;;;1535.13;999.90;;;28.80;99.90;;;;;;5020841;28;20032;-63
2023/10/16 00:41:23;;;;;;;1534.07;999.90;;;28.90;99.90;;;;;;5021324;28;20229;-63
2023/10/16 00:43:49;;;;;;;1492.00;999.90;;;29.00;99.90;;;;;;5020784;28;20025;-64
2023/10/16 00:46:37;;;;;;;1452.60;999.90;;;29.10;99.90;;;;;;5027888;28;20021;-63
2023/10/16 00:49:06;;;;;;;1495.72;999.90;;;29.20;99.90;;;;;;5018881;28;20030;-64
2023/10/16 00:51:38;;;;;;;1540.00;999.90;;;29.20;99.90;;;;;;5030394;28;20026;-63
2023/10/16 00:54:18;;;;;;;1519.97;999.90;;;29.30;99.90;;;;;;5030312;28;20038;-63
2023/10/16 00:56:46;;;;;;;1524.55;999.90;;;29.30;99.90;;;;;;5030311;28;20025;-63
2023/10/16 00:59:23;;;;;;;1514.68;999.90;;;29.30;99.90;;;;;;5026542;28;20036;-64
2023/10/16 01:02:15;;;;;;;1082.35;965.75;;;29.40;99.90;;;;;;5019180;28;20030;-64
2023/10/16 01:04:37;;;;;;;1515.97;999.90;;;29.50;99.90;;;;;;5024048;28;20041;-63
2023/10/16 01:07:06;;;;;;;1486.60;999.90;;;29.50;99.90;;;;;;5018693;28;20030;-63
2023/10/16 01:09:35;;;;;;;1498.03;999.90;;;29.60;99.90;;;;;;5022285;28;20083;-62
2023/10/16 01:12:06;;;;;;;1504.55;999.90;;;29.70;99.90;;;;;;5011007;28;20033;-61
2023/10/16 01:14:35;;;;;;;1471.38;999.90;;;29.80;99.90;;;;;;5010711;28;20105;-63
2023/10/16 01:17:04;;;;;;;1379.88;999.90;;;29.90;99.90;;;;;;5010603;28;20047;-62
2023/10/16 01:19:31;;;;;;;1423.93;999.90;;;29.90;99.90;;;;;;5011683;28;20448;-64
2023/10/16 01:21:59;;;;;;;1381.00;999.90;;;30.00;99.90;;;;;;5014000;28;20026;-63
2023/10/16 01:24:26;;;;;;;1381.63;999.90;;;30.00;99.90;;;;;;5020903;28;20033;-65
2023/10/16 01:27:00;;;;;;;1377.78;999.90;;;30.00;99.90;;;;;;5022022;28;20045;-63
2023/10/16 01:29:27;;;;;;;1381.47;999.90;;;30.00;99.90;;;;;;5022630;28;20022;-64
2023/10/16 01:31:54;;;;;;;1402.32;999.90;;;30.00;99.90;;;;;;5026629;28;20021;-63
2023/10/16 01:34:22;;;;;;;1417.53;999.90;;;30.00;99.90;;;;;;5033488;28;20116;-63
2023/10/16 01:36:51;;;;;;;1397.43;999.90;;;30.10;99.90;;;;;;5030206;28;20057;-62
2023/10/16 01:42:11;;;;;;;1387.03;999.90;;;30.10;99.90;;;;;;5021593;28;20026;-64
2023/10/16 01:44:39;;;;;;;1380.95;999.90;;;30.10;99.90;;;;;;5017566;28;20044;-64
2023/10/16 01:47:13;;;;;;;1361.35;999.90;;;30.20;99.90;;;;;;5022118;28;20029;-63
2023/10/16 01:49:41;;;;;;;1374.60;999.90;;;30.10;99.90;;;;;;5023240;28;20502;-63
2023/10/16 01:52:11;;;;;;;1370.30;999.90;;;30.10;99.90;;;;;;5017980;28;20034;-63
2023/10/16 01:54:42;;;;;;;475.95;426.40;;;30.30;99.90;;;;;;5022721;28;20021;-63
2023/10/16 01:57:10;;;;;;;498.23;446.92;;;30.30;99.90;;;;;;5024132;28;20053;-63
2023/10/16 01:59:41;;;;;;;1344.70;999.90;;;30.30;99.90;;;;;;5023096;28;20472;-63
2023/10/16 02:02:09;;;;;;;1362.22;999.90;;;30.40;99.90;;;;;;5022154;28;20029;-64
2023/10/16 02:04:37;;;;;;;1342.18;999.90;;;30.60;99.90;;;;;;5026284;28;20025;-63
2023/10/16 02:07:05;;;;;;;1346.55;999.90;;;30.70;99.90;;;;;;5033061;28;20030;-65
2023/10/16 02:09:31;;;;;;;1369.18;999.90;;;30.80;99.90;;;;;;5032631;28;20228;-64
2023/10/16 02:12:01;;;;;;;1366.70;999.90;;;30.90;99.90;;;;;;5032094;28;20104;-62
2023/10/16 02:14:27;;;;;;;1358.53;999.90;;;31.00;99.90;;;;;;5022152;28;20029;-62
2023/10/16 02:16:54;;;;;;;1362.22;999.90;;;31.00;99.90;;;;;;5018950;28;20029;-63
2023/10/16 02:19:20;;;;;;;1337.25;999.90;;;31.10;99.90;;;;;;5012809;28;20112;-63
2023/10/16 02:21:49;;;;;;;1348.70;999.90;;;31.10;99.90;;;;;;5013388;28;20379;-62
2023/10/16 02:24:16;;;;;;;1343.72;999.90;;;31.20;99.90;;;;;;5013305;28;20022;-63
2023/10/16 02:26:55;;;;;;;1364.65;999.90;;;31.20;99.90;;;;;;5013610;28;20041;-63
2023/10/16 04:06:56;;;;;;;1402.30;999.90;;;32.70;99.90;;;;;;5065659;27;20473;-63
2023/10/16 04:09:34;;;;;;;1419.38;999.90;;;33.80;99.90;;;;;;5066184;28;20025;-63
2023/10/16 04:12:06;;;;;;;1382.65;999.90;;;33.80;99.90;;;;;;5065778;28;20501;-62
2023/10/16 04:17:23;;;;;;;1364.57;999.90;;;33.80;99.90;;;;;;5065820;28;20047;-63
2023/10/16 04:19:59;;;;;;;1331.97;999.90;;;33.80;99.90;;;;;;5066513;28;20113;-63
2023/10/16 04:22:28;;;;;;;668.15;600.53;;;33.80;99.90;;;;;;5065803;28;20024;-62
2023/10/16 04:24:54;;;;;;;619.70;556.15;;;33.90;99.90;;;;;;5064356;28;20501;-62
2023/10/16 04:27:49;;;;;;;1341.03;999.90;;;33.90;99.90;;;;;;5058518;28;20079;-64
2023/10/16 04:32:40;;;;;;;576.63;517.40;;;34.00;99.90;;;;;;5044389;28;20398;-63
2023/10/16 04:37:55;;;;;;;1389.13;999.90;;;33.90;99.90;;;;;;5044055;28;20025;-62
2023/10/16 06:14:16;;;;;;;1387.00;999.90;;;35.60;90.30;;;;;;5069371;28;20051;-63
2023/10/16 06:16:43;;;;;;;1389.10;999.90;;;35.50;90.60;;;;;;5069753;28;20470;-63
2023/10/16 06:19:19;;;;;;;1380.22;999.90;;;35.50;90.00;;;;;;5069574;28;20025;-63
2023/10/16 06:21:47;;;;;;;1382.05;999.90;;;35.50;89.10;;;;;;5069440;28;20025;-63
2023/10/16 06:27:08;;;;;;;1393.75;999.90;;;35.30;90.20;;;;;;5069282;28;20029;-62
2023/10/16 06:32:26;;;;;;;1384.72;999.90;;;35.40;86.90;;;;;;5069024;28;20166;-63
2023/10/16 06:34:58;;;;;;;1355.05;999.90;;;35.50;87.40;;;;;;5077919;28;20390;-63
2023/10/16 06:37:24;;;;;;;;;;;35.40;86.60;;;;;;5070929;28;20072;-63
2023/10/16 06:39:54;;;;;;;1381.00;999.90;;;35.40;86.50;;;;;;5069330;28;20325;-63
2023/10/16 06:42:22;;;;;;;1379.95;999.90;;;35.40;84.80;;;;;;5067820;28;20044;-63
2023/10/16 06:44:53;;;;;;;1382.82;999.90;;;35.50;84.50;;;;;;5055411;28;20033;-63
2023/10/16 06:47:34;;;;;;;1353.97;999.90;;;35.50;85.20;;;;;;5055768;28;20064;-63
2023/10/16 06:52:52;;;;;;;1387.22;999.90;;;35.70;84.50;;;;;;5055848;28;20025;-63
2023/10/16 06:55:19;;;;;;;1383.95;999.90;;;35.80;84.80;;;;;;5056049;28;20371;-63
2023/10/16 06:57:46;;;;;;;1389.00;999.90;;;35.80;83.10;;;;;;5055528;28;20025;-62
2023/10/16 07:00:38;;;;;;;1372.13;999.90;;;35.80;82.30;;;;;;5055700;28;20040;-62
2023/10/16 07:03:02;;;;;;;1382.55;999.90;;;35.70;81.70;;;;;;5055128;28;20033;-62
2023/10/16 07:08:19;;;;;;;1386.15;999.90;;;35.80;82.80;;;;;;5070286;28;20032;-62
2023/10/16 07:10:53;;;;;;;1387.90;999.90;;;35.80;81.70;;;;;;5070616;28;20052;-64
2023/10/16 07:13:31;;;;;;;1392.75;999.90;;;35.90;82.40;;;;;;5056975;28;20104;-63
2023/10/16 07:16:01;;;;;;;1379.25;999.90;;;35.90;82.90;;;;;;5072957;28;20031;-63
2023/10/16 07:18:31;;;;;;;1387.35;999.90;;;36.00;83.90;;;;;;5075020;28;20595;-64
2023/10/16 07:20:59;;;;;;;1378.07;999.90;;;36.00;80.80;;;;;;5074990;28;20090;-63
2023/10/16 07:23:34;;;;;;;1357.53;999.90;;;36.00;79.20;;;;;;5074952;28;20024;-64
2023/10/16 07:26:02;;;;;;;1360.85;999.90;;;36.00;79.90;;;;;;5056095;28;20029;-65
2023/10/16 07:28:31;;;;;;;1366.05;999.90;;;36.00;80.10;;;;;;5055011;28;20029;-64
2023/10/16 07:30:59;;;;;;;1389.25;999.90;;;36.00;80.60;;;;;;5054479;28;20052;-64
2023/10/16 07:33:27;;;;;;;1385.47;999.90;;;36.00;79.90;;;;;;5054916;28;20021;-63
2023/10/16 07:35:55;;;;;;;570.25;511.70;;;36.10;79.60;;;;;;5068269;28;20415;-63
2023/10/16 07:38:23;;;;;;;562.00;503.98;;;36.10;79.20;;;;;;5075025;28;20568;-63
2023/10/16 07:40:53;;;;;;;775.53;694.72;;;36.10;79.10;;;;;;5074706;28;20423;-65
2023/10/16 07:43:33;;;;;;;497.20;444.90;;;36.10;79.60;;;;;;5074612;28;20048;-63
2023/10/16 07:48:51;;;;;;;656.05;588.95;;;36.10;77.80;;;;;;5074629;28;20013;-63
2023/10/16 07:51:20;;;;;;;1224.78;999.90;;;36.00;75.00;;;;;;5074447;28;20033;-63
2023/10/16 07:53:49;;;;;;;1394.40;999.90;;;36.00;76.80;;;;;;5074537;28;20046;-64
2023/10/16 07:58:56;;;;;;;1390.95;999.90;;;35.90;77.10;;;;;;5074386;28;20423;-65
2023/10/16 08:06:49;;;;;;;1392.10;999.90;;;35.80;75.10;;;;;;5070701;28;20025;-64
2023/10/16 08:11:57;;;;;;;1353.80;999.90;;;35.90;74.70;;;;;;5053875;28;20021;-64
2023/10/16 08:14:30;;;;;;;1385.95;999.90;;;35.90;77.20;;;;;;5054175;28;20032;-64
2023/10/16 08:17:04;;;;;;;1395.25;999.90;;;35.90;78.20;;;;;;5054413;28;20048;-64
2023/10/16 08:19:34;;;;;;;1369.43;999.90;;;35.90;76.00;;;;;;5053867;28;20036;-64
2023/10/16 08:22:03;;;;;;;1395.05;999.90;;;35.90;76.90;;;;;;5053889;28;20040;-68
2023/10/16 08:24:30;;;;;;;1395.60;999.90;;;35.90;75.80;;;;;;5053807;28;20036;-65
2023/10/16 08:27:11;;;;;;;1390.93;999.90;;;35.90;76.70;;;;;;5053750;28;20120;-66
2023/10/16 08:29:50;;;;;;;1355.28;999.90;;;35.90;74.50;;;;;;5069338;28;20028;-64
2023/10/16 08:35:09;;;;;;;1387.75;999.90;;;35.80;74.00;;;;;;5063636;28;20021;-65
2023/10/16 08:37:40;;;;;;;1393.43;999.90;;;35.80;74.50;;;;;;5063097;28;20013;-64
2023/10/16 08:40:19;;;;;;;1386.95;999.90;;;35.80;71.40;;;;;;5061799;28;20520;-63
2023/10/16 08:43:00;;;;;;;1376.32;999.90;;;35.80;73.90;;;;;;5061495;28;20045;-64
2023/10/16 08:45:32;;;;;;;1383.93;999.90;;;35.80;72.70;;;;;;5061620;28;20486;-64
2023/10/16 08:48:01;;;;;;;1385.93;999.90;;;35.80;72.40;;;;;;5061872;28;20474;-65
2023/10/16 08:56:07;;;;;;;1392.97;999.90;;;35.70;72.50;;;;;;5063509;28;20082;-66
2023/10/16 08:58:45;;;;;;;1391.70;999.90;;;35.60;73.40;;;;;;5062503;28;20043;-65
2023/10/16 09:01:16;;;;;;;1292.70;999.90;;;35.60;75.10;;;;;;5062289;28;20036;-67
2023/10/16 09:03:50;;;;;;;1383.80;999.90;;;35.60;74.50;;;;;;5066021;28;20107;-66
2023/10/16 09:06:26;;;;;;;1375.15;999.90;;;35.60;74.40;;;;;;5065067;28;20029;-66
2023/10/16 09:08:55;;;;;;;1374.22;999.90;;;35.60;74.40;;;;;;5063636;28;20111;-64
2023/10/16 09:11:22;;;;;;;1382.88;999.90;;;35.50;72.80;;;;;;5061083;28;20033;-65
2023/10/16 09:13:51;;;;;;;1378.38;999.90;;;35.40;72.40;;;;;;5063565;28;20028;-66
2023/10/16 09:16:23;;;;;;;1384.78;999.90;;;35.30;73.00;;;;;;5058130;28;20426;-63
2023/10/16 09:18:51;;;;;;;1383.97;999.90;;;35.40;74.30;;;;;;5061067;28;20025;-63
2023/10/16 09:21:29;;;;;;;1383.30;999.90;;;35.40;75.50;;;;;;5062610;28;20020;-63
2023/10/16 09:23:58;;;;;;;1386.82;999.90;;;35.40;75.00;;;;;;5061599;28;20478;-64
2023/10/16 09:26:28;;;;;;;1388.63;999.90;;;35.40;76.10;;;;;;5062786;28;20082;-63
2023/10/16 09:29:04;;;;;;;1384.30;999.90;;;35.30;74.40;;;;;;5061926;28;20059;-64
2023/10/16 09:31:31;;;;;;;1272.47;999.90;;;35.30;74.70;;;;;;5061862;28;20565;-64
2023/10/16 09:33:58;;;;;;;1386.57;999.90;;;35.20;76.30;;;;;;5062734;28;20020;-63
2023/10/16 09:36:29;;;;;;;1381.35;999.90;;;35.10;75.90;;;;;;5063149;28;20032;-61
2023/10/16 09:39:00;;;;;;;1374.40;999.90;;;35.00;76.10;;;;;;5061646;28;20017;-63
2023/10/16 09:44:06;;;;;;;1359.30;999.90;;;35.00;79.80;;;;;;5063877;28;20162;-62
2023/10/16 09:46:55;;;;;;;1353.78;999.90;;;35.00;77.30;;;;;;5063788;28;20021;-62
2023/10/16 09:49:23;;;;;;;1354.18;999.90;;;34.90;78.70;;;;;;5062519;28;20442;-63
2023/10/16 09:51:57;;;;;;;1376.85;999.90;;;34.90;78.50;;;;;;5061317;28;20029;-64
2023/10/16 09:54:26;;;;;;;1366.10;999.90;;;34.90;79.60;;;;;;5062295;28;20111;-63
2023/10/16 09:56:59;;;;;;;1381.15;999.90;;;34.90;79.40;;;;;;5063689;28;20024;-63
2023/10/16 09:59:33;;;;;;;1373.97;999.90;;;34.80;77.60;;;;;;5061208;28;20037;-63
2023/10/16 10:02:05;;;;;;;1378.50;999.90;;;34.80;78.90;;;;;;5062514;28;20067;-65
2023/10/16 10:04:35;;;;;;;1380.15;999.90;;;34.70;79.30;;;;;;5065681;28;20031;-63
2023/10/16 10:07:11;;;;;;;1563.35;999.90;;;34.70;78.40;;;;;;5057434;28;20029;-65
2023/10/16 10:09:42;;;;;;;1342.47;999.90;;;34.70;77.80;;;;;;5066256;28;20025;-65
2023/10/16 10:12:48;;;;;;;1403.47;999.90;;;34.60;77.70;;;;;;5067130;28;20405;-65
2023/10/16 10:15:22;;;;;;;1349.88;999.90;;;34.50;75.50;;;;;;5066176;28;20021;-65
2023/10/16 10:17:54;;;;;;;1311.95;999.90;;;34.50;75.50;;;;;;5059833;28;20031;-67
2023/10/16 10:20:26;;;;;;;1421.28;999.90;;;34.50;75.40;;;;;;5065907;28;20706;-66
2023/10/16 10:22:58;;;;;;;1427.07;999.90;;;34.40;74.50;;;;;;5065069;28;20056;-67
2023/10/16 10:25:29;;;;;;;;;;;34.30;75.00;;;;;;5066439;28;20020;-67
2023/10/16 10:28:09;;;;;;;1549.63;999.90;;;34.30;74.40;;;;;;5065663;28;19904;-66
2023/10/16 10:30:43;;;;;;;1486.47;999.90;;;34.20;74.30;;;;;;5065646;28;20025;-65
2023/10/16 10:33:12;;;;;;;1135.45;999.90;;;34.20;74.60;;;;;;5061414;28;20048;-64
2023/10/16 10:35:40;;;;;;;1155.93;999.90;;;34.20;75.00;;;;;;5064703;28;20017;-66
2023/10/16 10:38:17;;;;;;;1158.57;999.90;;;34.20;73.40;;;;;;5065267;28;20391;-67
2023/10/16 10:41:04;;;;;;;1124.72;999.90;;;34.20;74.50;;;;;;5064812;28;20044;-65
2023/10/16 10:43:58;;;;;;;1051.15;942.30;;;34.20;74.10;;;;;;5065590;28;20498;-65
2023/10/16 10:46:26;;;;;;;1360.40;999.90;;;34.10;73.40;;;;;;5071745;22;20064;-66
2023/10/16 10:48:56;;;;;;;1584.43;999.90;;;34.10;73.90;;;;;;5043373;28;20032;-66
2023/10/16 10:51:23;;;;;;;1409.18;999.90;;;34.00;73.30;;;;;;5044369;28;20032;-65
2023/10/16 10:53:59;;;;;;;1585.85;999.90;;;33.90;74.00;;;;;;5045516;28;20100;-66
2023/10/16 10:56:59;;;;;;;1590.07;999.90;;;33.90;73.30;;;;;;5045697;28;20100;-65
2023/10/16 10:59:48;;;;;;;1605.97;999.90;;;33.80;73.50;;;;;;5045451;28;20024;-67
2023/10/16 11:04:54;;;;;;;1609.72;999.90;;;33.70;74.70;;;;;;5052080;28;20452;-66
2023/10/16 11:07:39;;;;;;;1614.13;999.90;;;33.60;74.90;;;;;;5042940;28;20017;-65
2023/10/16 11:10:07;;;;;;;1613.50;999.90;;;33.60;76.60;;;;;;5045316;28;20137;-67
2023/10/16 11:12:33;;;;;;;1632.75;999.90;;;33.50;76.20;;;;;;5051178;28;20104;-65
2023/10/16 11:15:05;;;;;;;1600.70;999.90;;;33.50;78.80;;;;;;5045617;28;20056;-65
2023/10/16 11:17:32;;;;;;;;;;;33.50;78.40;;;;;;5045903;28;20021;-66
2023/10/16 11:20:12;;;;;;;1612.20;999.90;;;33.50;78.20;;;;;;5038130;28;19916;-67
2023/10/16 11:22:44;;;;;;;1607.85;999.90;;;33.40;77.70;;;;;;5042810;28;20542;-67
2023/10/16 11:25:13;;;;;;;1608.20;999.90;;;33.30;78.60;;;;;;5034923;28;20060;-64
2023/10/16 11:27:42;;;;;;;1617.97;999.90;;;33.30;80.30;;;;;;5034845;28;20079;-65
2023/10/16 11:30:11;;;;;;;1593.03;999.90;;;33.30;80.70;;;;;;5034998;28;20103;-67
2023/10/16 11:32:42;;;;;;;1608.32;999.90;;;33.20;81.00;;;;;;5034585;28;20024;-66
2023/10/16 11:35:18;;;;;;;1607.47;999.90;;;33.10;82.20;;;;;;5039082;28;20057;-65
2023/10/16 11:37:52;;;;;;;1612.07;999.90;;;33.00;81.80;;;;;;5042462;28;20029;-64
2023/10/16 11:43:19;;;;;;;1602.18;999.90;;;32.80;83.10;;;;;;5024836;28;20060;-66
2023/10/16 11:45:56;;;;;;;1592.82;999.90;;;32.80;83.80;;;;;;5034325;28;20038;-66
2023/10/16 11:48:35;;;;;;;1591.20;999.90;;;32.80;84.70;;;;;;5034643;28;20026;-65
2023/10/16 11:51:08;;;;;;;1578.15;999.90;;;32.70;84.60;;;;;;5041015;28;20448;-65
2023/10/16 11:53:37;;;;;;;1536.10;999.90;;;32.60;85.30;;;;;;5042341;28;20025;-66
2023/10/16 11:56:05;;;;;;;1452.47;999.90;;;32.60;84.30;;;;;;5035023;28;20601;-67
2023/10/16 11:58:31;;;;;;;1530.47;999.90;;;32.50;86.10;;;;;;5043282;28;20352;-65
2023/10/16 12:01:08;;;;;;;1544.53;999.90;;;32.50;86.60;;;;;;5042777;28;20025;-65
2023/10/16 12:03:38;;;;;;;1528.97;999.90;;;32.50;86.20;;;;;;5033659;28;20053;-64
2023/10/16 12:06:08;;;;;;;1479.93;999.90;;;32.50;87.70;;;;;;5041672;28;20044;-67
2023/10/16 12:08:37;;;;;;;1472.28;999.90;;;32.40;87.90;;;;;;5043577;28;20013;-64
2023/10/16 12:11:04;;;;;;;1470.57;999.90;;;32.40;88.00;;;;;;5047447;28;20017;-64
2023/10/16 12:13:31;;;;;;;1566.80;999.90;;;32.50;88.80;;;;;;5042251;28;20033;-63
2023/10/16 12:15:58;;;;;;;1496.55;999.90;;;32.40;89.10;;;;;;5044078;28;20032;-64
2023/10/16 12:18:28;;;;;;;1371.57;999.90;;;32.40;89.00;;;;;;5042045;28;20179;-64
2023/10/16 12:21:04;;;;;;;1527.05;999.90;;;32.30;90.10;;;;;;5044894;28;20026;-63
2023/10/16 12:23:36;;;;;;;1623.53;999.90;;;32.20;90.00;;;;;;5042844;28;20025;-64
2023/10/16 12:26:03;;;;;;;;;;;32.10;90.70;;;;;;5044694;28;20029;-64
2023/10/16 12:28:32;;;;;;;1590.88;999.90;;;32.10;90.90;;;;;;5043638;28;19921;-63
2023/10/16 12:30:59;;;;;;;1617.57;999.90;;;32.10;90.70;;;;;;5042772;28;20516;-65
2023/10/16 12:33:26;;;;;;;1620.95;999.90;;;32.00;91.10;;;;;;5043898;28;20432;-65
2023/10/16 12:35:55;;;;;;;1569.63;999.90;;;32.00;91.60;;;;;;5042622;28;20052;-62
2023/10/16 12:38:24;;;;;;;1162.43;999.90;;;32.00;91.50;;;;;;5041559;28;20418;-65
2023/10/16 12:40:53;;;;;;;1385.93;999.90;;;31.90;91.90;;;;;;5044450;28;20414;-65
2023/10/16 12:43:21;;;;;;;1592.32;999.90;;;31.90;92.40;;;;;;5046931;28;20055;-65
2023/10/16 12:45:51;;;;;;;1174.15;999.90;;;31.90;92.40;;;;;;5040993;28;20534;-65
2023/10/16 12:48:18;;;;;;;1502.95;999.90;;;31.90;92.20;;;;;;5065249;23;20048;-63
2023/10/16 12:50:48;;;;;;;1594.85;999.90;;;31.80;92.60;;;;;;5092899;28;20032;-64
2023/10/16 12:53:15;;;;;;;1591.43;999.90;;;31.70;92.60;;;;;;5093410;28;20390;-65
2023/10/16 12:55:49;;;;;;;1572.18;999.90;;;31.60;92.90;;;;;;5092911;28;20102;-64
2023/10/16 12:58:18;;;;;;;1598.72;999.90;;;31.70;93.20;;;;;;5092264;28;20047;-65
2023/10/16 13:00:46;;;;;;;1606.20;999.90;;;31.60;93.30;;;;;;5094402;28;20095;-65
2023/10/16 13:03:14;;;;;;;1605.85;999.90;;;31.60;93.60;;;;;;5094351;28;20031;-66
2023/10/16 13:05:43;;;;;;;1480.88;999.90;;;31.60;93.60;;;;;;5094135;28;20016;-65
2023/10/16 13:08:10;;;;;;;1470.35;999.90;;;31.60;93.90;;;;;;5094629;28;20028;-65
2023/10/16 13:10:37;;;;;;;1447.05;999.90;;;31.50;93.40;;;;;;5091883;28;20035;-65
2023/10/16 13:13:03;;;;;;;1417.72;999.90;;;31.50;94.00;;;;;;5082827;28;20424;-65
2023/10/16 13:15:31;;;;;;;1411.28;999.90;;;31.50;93.90;;;;;;5074139;28;20506;-66
2023/10/16 13:18:00;;;;;;;1414.30;999.90;;;31.40;94.10;;;;;;5073963;28;20028;-65
2023/10/16 13:20:27;;;;;;;1404.65;999.90;;;31.40;94.40;;;;;;5073609;28;20023;-66
2023/10/16 13:22:55;;;;;;;1415.82;999.90;;;31.40;94.30;;;;;;5078835;28;20094;-66
2023/10/16 13:25:25;;;;;;;1421.07;999.90;;;31.40;94.50;;;;;;5079176;28;20037;-66
2023/10/16 13:27:53;;;;;;;1407.75;999.90;;;31.30;94.50;;;;;;5074035;28;20029;-65
2023/10/16 13:30:22;;;;;;;1410.43;999.90;;;31.20;95.00;;;;;;5073792;28;20051;-64
2023/10/16 13:32:49;;;;;;;1406.40;999.90;;;31.20;95.40;;;;;;5073858;28;20075;-67
2023/10/16 13:35:18;;;;;;;1394.65;999.90;;;31.20;95.00;;;;;;5081725;28;20020;-70
2023/10/16 13:37:46;;;;;;;1389.25;999.90;;;31.20;95.50;;;;;;5088784;28;20067;-63
2023/10/16 13:40:28;;;;;;;1389.97;999.90;;;31.20;95.80;;;;;;5078845;28;20025;-69
2023/10/16 13:42:56;;;;;;;1398.57;999.90;;;31.20;95.90;;;;;;5086748;28;20041;-68
2023/10/16 13:45:25;;;;;;;1405.03;999.90;;;31.20;95.90;;;;;;5074743;28;20394;-67
2023/10/16 13:47:53;;;;;;;1399.95;999.90;;;31.10;96.10;;;;;;5081829;28;20041;-68
2023/10/16 13:50:29;;;;;;;1401.35;999.90;;;31.10;96.70;;;;;;5082283;28;20529;-66
2023/10/16 13:52:56;;;;;;;1356.72;999.90;;;31.00;96.90;;;;;;5073739;28;20113;-68
2023/10/16 13:55:24;;;;;;;1373.97;999.90;;;31.00;97.00;;;;;;5091364;28;20016;-67
2023/10/16 13:57:54;;;;;;;1407.18;999.90;;;30.90;97.50;;;;;;5097100;28;20012;-66
2023/10/16 14:00:31;;;;;;;1406.95;999.90;;;30.90;97.40;;;;;;5096298;28;20016;-67
2023/10/16 14:05:50;;;;;;;1380.45;999.90;;;30.90;98.10;;;;;;5092614;28;20047;-68
2023/10/16 14:08:35;;;;;;;1431.15;999.90;;;30.80;98.20;;;;;;5092588;28;20020;-65
2023/10/16 14:11:01;;;;;;;1442.05;999.90;;;30.80;98.70;;;;;;5096498;28;20047;-65
2023/10/16 14:13:28;;;;;;;1435.38;999.90;;;30.70;99.00;;;;;;5097279;28;20023;-66
2023/10/16 14:18:43;;;;;;;1411.68;999.90;;;30.70;99.50;;;;;;5089248;28;20071;-67
2023/10/16 14:21:11;;;;;;;1428.60;999.90;;;30.70;99.50;;;;;;5097111;28;20012;-65
2023/10/16 14:23:39;;;;;;;1403.75;999.90;;;30.70;99.90;;;;;;5097255;28;20024;-62
2023/10/16 14:28:58;;;;;;;1384.68;999.90;;;30.60;99.90;;;;;;5096959;28;20020;-71
2023/10/16 14:31:28;;;;;;;1399.93;999.90;;;30.60;99.90;;;;;;5097167;28;20491;-68
2023/10/16 14:33:55;;;;;;;1398.60;999.90;;;30.60;99.90;;;;;;5095925;28;20020;-68
2023/10/16 14:36:24;;;;;;;1397.35;999.90;;;30.60;99.90;;;;;;5095849;28;20483;-67
2023/10/16 14:38:52;;;;;;;1393.93;999.90;;;30.60;99.90;;;;;;5095065;28;20032;-67
2023/10/16 14:41:23;;;;;;;1377.70;999.90;;;30.50;99.90;;;;;;5096284;28;20028;-66
2023/10/16 14:43:50;;;;;;;1388.10;999.90;;;30.60;99.90;;;;;;5096548;28;20519;-66
2023/10/16 14:46:19;;;;;;;1372.20;999.90;;;30.50;99.90;;;;;;5096564;28;20473;-67
2023/10/16 14:48:46;;;;;;;1387.65;999.90;;;30.50;99.90;;;;;;5095825;28;20055;-64
2023/10/16 14:51:14;;;;;;;1381.97;999.90;;;30.50;99.90;;;;;;5095657;28;20078;-65
2023/10/16 14:53:43;;;;;;;1378.03;999.90;;;30.50;99.90;;;;;;5095373;28;20027;-66
2023/10/16 14:56:16;;;;;;;1369.82;999.90;;;30.50;99.90;;;;;;5095253;28;20107;-66
2023/10/16 14:58:43;;;;;;;1368.68;999.90;;;30.40;99.90;;;;;;5092549;28;20027;-66
2023/10/16 15:01:19;;;;;;;1257.25;999.90;;;30.40;99.90;;;;;;5095383;28;20024;-65
2023/10/16 15:03:51;;;;;;;1255.50;999.90;;;30.50;99.90;;;;;;5092336;28;20099;-67
2023/10/16 15:06:18;;;;;;;1315.68;999.90;;;30.40;99.90;;;;;;5096053;28;20040;-67
2023/10/16 15:08:46;;;;;;;1351.82;999.90;;;30.40;99.90;;;;;;5095700;28;20032;-65
2023/10/16 15:11:13;;;;;;;1376.90;999.90;;;30.30;99.90;;;;;;5092407;28;20030;-63
2023/10/16 15:13:42;;;;;;;1354.78;999.90;;;30.40;99.90;;;;;;5075853;28;20371;-61
2023/10/16 15:16:10;;;;;;;1362.30;999.90;;;30.30;99.90;;;;;;5086343;28;20394;-62
2023/10/16 15:18:38;;;;;;;1163.53;999.90;;;30.30;99.90;;;;;;5095748;28;20020;-62
2023/10/16 15:21:07;;;;;;;1089.47;972.85;;;30.20;99.90;;;;;;5095536;28;20027;-64
2023/10/16 15:23:35;;;;;;;1082.53;966.20;;;30.20;99.90;;;;;;5075416;28;20017;-63
2023/10/16 15:26:02;;;;;;;1036.38;925.35;;;30.20;99.90;;;;;;5075393;28;20463;-65
2023/10/16 15:28:29;;;;;;;1071.15;956.50;;;30.20;99.90;;;;;;5075209;28;20090;-64
2023/10/16 15:30:57;;;;;;;1039.20;928.83;;;30.20;99.90;;;;;;5074981;28;20051;-64
2023/10/16 15:33:25;;;;;;;989.00;884.50;;;30.20;99.90;;;;;;5075276;28;20509;-63
2023/10/16 15:35:52;;;;;;;992.33;885.47;;;30.20;99.90;;;;;;5075123;28;20033;-64
2023/10/16 15:38:29;;;;;;;1004.95;896.60;;;30.20;99.90;;;;;;5074981;28;20020;-64
2023/10/16 15:41:00;;;;;;;1008.92;899.78;;;30.20;99.90;;;;;;5075229;28;20425;-64
2023/10/16 15:43:26;;;;;;;995.50;887.72;;;30.10;99.90;;;;;;5074741;28;20036;-64
2023/10/16 15:45:53;;;;;;;985.72;879.70;;;30.10;99.90;;;;;;5075035;28;20020;-65
2023/10/16 15:48:19;;;;;;;976.40;869.65;;;30.10;99.90;;;;;;5074844;28;20048;-64
2023/10/16 15:50:48;;;;;;;1004.47;895.13;;;30.10;99.90;;;;;;5074786;28;20013;-69
2023/10/16 15:53:16;;;;;;;975.10;868.63;;;30.20;99.90;;;;;;5074760;28;20033;-67
2023/10/16 15:55:46;;;;;;;1023.17;911.78;;;30.10;99.90;;;;;;5074774;28;20028;-68
2023/10/16 15:58:13;;;;;;;947.67;844.70;;;30.10;99.90;;;;;;5074511;28;20077;-68
2023/10/16 16:00:41;;;;;;;963.95;858.22;;;30.10;99.90;;;;;;5074587;28;20035;-68
2023/10/16 16:03:08;;;;;;;1007.30;897.25;;;30.10;99.90;;;;;;5088729;28;20049;-68
2023/10/16 16:19:32;;;;;;;969.13;865.70;;;30.00;99.90;;;;;;5151776;27;20493;-65
2023/10/16 16:21:58;;;;;;;960.13;856.30;;;30.30;99.90;;;;;;5152052;27;20038;-65
2023/10/16 16:24:25;;;;;;;949.55;846.47;;;30.30;99.90;;;;;;5147560;27;20023;-65
2023/10/16 16:26:52;;;;;;;988.13;881.60;;;30.20;99.90;;;;;;5130873;27;20023;-64
2023/10/16 16:29:18;;;;;;;970.78;866.90;;;30.10;99.90;;;;;;5131143;27;20076;-65
2023/10/16 16:31:45;;;;;;;959.33;856.33;;;30.00;99.90;;;;;;5130895;27;20027;-64
2023/10/16 16:34:11;;;;;;;983.22;877.67;;;30.00;99.90;;;;;;5132088;27;20495;-65
2023/10/16 16:36:40;;;;;;;984.25;879.15;;;30.00;99.90;;;;;;5136362;27;20058;-67
2023/10/16 16:39:12;;;;;;;955.13;853.22;;;30.00;99.90;;;;;;5151746;27;20023;-67
2023/10/16 16:41:40;;;;;;;948.13;847.10;;;30.00;99.90;;;;;;5151556;27;20050;-66
2023/10/16 16:44:07;;;;;;;987.08;881.65;;;29.90;99.90;;;;;;5151675;27;20100;-66